Time;durP1;ratioP1;P1;durP2;ratioP2;P2;SDS_P1;SDS_P2;PMS_P1;PMS_P2;Temp;Humidity;BMP_temperature;BMP_pressure;BME280_temperature;BME280_humidity;BME280_pressure;Samples;Min_cycle;Max_cycle;Signal;HPM_P1;HPM_P2
2022/11/02 00:01:21;;;;;;;21.30;12.68;;;;;;;13.75;56.68;95299.28;4176311;28;20057;-57
2022/11/02 00:03:23;;;;;;;25.27;13.45;;;;;;;13.84;56.48;95295.66;4177353;28;20076;-57
2022/11/02 00:05:25;;;;;;;27.15;11.20;;;;;;;13.83;56.04;95294.00;4177577;28;20052;-56
2022/11/02 00:07:27;;;;;;;19.25;11.95;;;;;;;13.82;56.45;95299.44;4160697;28;20136;-56
2022/11/02 00:09:28;;;;;;;24.42;13.50;;;;;;;13.84;56.37;95293.00;4174530;28;20045;-59
2022/11/02 00:11:30;;;;;;;25.30;12.40;;;;;;;13.87;56.49;95291.84;4169385;28;20562;-58
2022/11/02 00:13:32;;;;;;;27.13;13.65;;;;;;;13.88;56.30;95294.34;4165544;28;20662;-57
2022/11/02 00:15:34;;;;;;;26.88;13.55;;;;;;;13.91;56.20;95299.25;4173020;28;20055;-58
2022/11/02 00:17:37;;;;;;;24.25;12.68;;;;;;;13.83;56.17;95298.44;4170381;28;20144;-57
2022/11/02 00:19:39;;;;;;;22.02;11.98;;;;;;;13.73;56.82;95295.97;4177040;28;20678;-57
2022/11/02 00:21:41;;;;;;;22.52;13.65;;;;;;;13.73;56.76;95291.53;4176502;28;20564;-57
2022/11/02 00:23:43;;;;;;;22.48;12.88;;;;;;;13.76;56.79;95293.00;4172180;28;20435;-58
2022/11/02 00:25:46;;;;;;;27.23;13.00;;;;;;;13.79;56.59;95294.47;4167373;28;20076;-58
2022/11/02 00:27:48;;;;;;;;;;;;;;;13.78;56.97;95287.59;4174489;28;20063;-56
2022/11/02 00:29:49;;;;;;;25.42;14.65;;;;;;;13.79;56.47;95286.59;4181490;28;20305;-56
2022/11/02 00:31:51;;;;;;;22.63;13.23;;;;;;;13.78;56.76;95288.41;4180961;28;20493;-57
2022/11/02 00:33:53;;;;;;;23.48;13.52;;;;;;;13.82;56.78;95284.44;4181874;28;20081;-58
2022/11/02 00:35:55;;;;;;;21.83;12.57;;;;;;;13.79;56.89;95284.78;4180839;28;20063;-59
2022/11/02 00:37:56;;;;;;;22.42;13.43;;;;;;;13.79;56.52;95287.44;4181602;28;20061;-59
2022/11/02 00:39:58;;;;;;;25.27;14.68;;;;;;;13.78;56.78;95285.78;4181742;28;20164;-57
2022/11/02 00:42:00;;;;;;;32.72;17.80;;;;;;;13.78;57.24;95287.59;4168097;28;20081;-59
2022/11/02 00:44:01;;;;;;;25.48;15.00;;;;;;;13.69;56.99;95286.75;4175352;28;20088;-57
2022/11/02 00:46:03;;;;;;;24.00;12.98;;;;;;;13.68;57.30;95285.94;4173317;28;20045;-58
2022/11/02 00:48:05;;;;;;;29.90;14.10;;;;;;;13.66;57.25;95284.47;4168544;28;20045;-58
2022/11/02 00:50:08;;;;;;;24.48;13.00;;;;;;;13.62;57.36;95278.69;4177741;28;20056;-60
2022/11/02 00:52:09;;;;;;;24.42;12.20;;;;;;;13.64;56.92;95283.81;4164348;28;20135;-54
2022/11/02 00:54:11;;;;;;;25.17;13.23;;;;;;;13.64;57.27;95282.00;4167773;28;20132;-55
2022/11/02 00:56:13;;;;;;;24.73;13.82;;;;;;;13.66;57.01;95280.00;4179581;28;20053;-56
2022/11/02 00:58:14;;;;;;;25.17;14.18;;;;;;;13.67;56.87;95286.09;4181117;28;20131;-54
2022/11/02 01:00:16;;;;;;;24.10;16.33;;;;;;;13.65;57.45;95288.88;4179177;28;20131;-56
2022/11/02 01:02:18;;;;;;;24.98;15.85;;;;;;;13.60;57.65;95285.94;4179605;28;20091;-56
2022/11/02 01:04:20;;;;;;;24.05;14.63;;;;;;;13.52;57.69;95289.38;4178646;28;20045;-57
2022/11/02 01:06:22;;;;;;;27.33;13.55;;;;;;;13.42;57.55;95280.81;4180367;28;20076;-58
2022/11/02 01:08:24;;;;;;;21.40;13.57;;;;;;;13.23;57.73;95289.78;4181178;28;20059;-56
2022/11/02 01:10:26;;;;;;;22.67;11.30;;;;;;;13.00;58.28;95284.28;4180889;28;20060;-58
2022/11/02 01:12:27;;;;;;;19.10;10.68;;;;;;;12.78;59.01;95295.41;4180774;28;20133;-57
2022/11/02 01:14:29;;;;;;;21.45;11.43;;;;;;;12.52;59.80;95293.63;4180759;28;20091;-60
2022/11/02 01:16:31;;;;;;;20.45;10.93;;;;;;;12.43;60.25;95290.13;4176340;28;20128;-59
2022/11/02 01:18:34;;;;;;;21.17;10.73;;;;;;;12.40;60.02;95293.06;4172415;28;20049;-58
2022/11/02 01:20:35;;;;;;;20.67;10.38;;;;;;;12.28;59.96;95299.53;4179130;28;20052;-59
2022/11/02 01:22:37;;;;;;;18.80;9.60;;;;;;;12.16;60.65;95301.63;4179313;28;20049;-56
2022/11/02 01:24:39;;;;;;;19.98;10.07;;;;;;;12.07;60.79;95295.47;4172121;28;20553;-57
2022/11/02 01:26:41;;;;;;;20.88;11.13;;;;;;;12.23;60.57;95297.38;4163752;28;20084;-57
2022/11/02 01:28:42;;;;;;;26.30;11.50;;;;;;;12.40;60.20;95286.97;4174849;28;20088;-59
2022/11/02 01:30:47;;;;;;;20.15;10.88;;;;;;;12.56;59.71;95284.47;4174796;28;20084;-57
2022/11/02 01:32:49;;;;;;;21.20;11.07;;;;;;;12.68;59.53;95277.91;4179321;28;20589;-58
2022/11/02 01:34:50;;;;;;;19.02;11.52;;;;;;;12.84;59.03;95281.59;4175606;28;20132;-59
2022/11/02 01:36:52;;;;;;;19.60;10.18;;;;;;;12.94;58.82;95274.41;4175096;28;20128;-58
2022/11/02 01:38:54;;;;;;;19.83;9.82;;;;;;;12.99;58.25;95272.13;4166826;28;20128;-58
2022/11/02 01:40:56;;;;;;;19.10;10.32;;;;;;;13.03;57.90;95270.00;4172834;28;20497;-59
2022/11/02 01:42:58;;;;;;;18.02;10.73;;;;;;;13.07;58.15;95268.69;4164882;28;20061;-59
2022/11/02 01:44:59;;;;;;;22.92;10.15;;;;;;;13.10;57.39;95265.75;4174075;28;20127;-57
2022/11/02 01:47:18;;;;;;;18.95;10.00;;;;;;;13.15;57.31;95260.00;4171725;28;20052;-57
2022/11/02 01:49:21;;;;;;;37.33;26.80;;;;;;;13.16;57.36;95257.19;4179035;28;20053;-57
2022/11/02 01:51:28;;;;;;;33.30;22.85;;;;;;;13.18;57.83;95257.84;4179112;28;20048;-58
2022/11/02 01:53:32;;;;;;;34.58;21.92;;;;;;;13.19;57.57;95263.97;4195818;28;20853;-57
2022/11/02 01:55:34;;;;;;;;;;;;;;;13.09;57.81;95264.91;4179500;28;20053;-56
2022/11/02 01:57:37;;;;;;;32.75;21.45;;;;;;;13.00;58.42;95259.81;4179044;28;20343;-57
2022/11/02 01:59:56;;;;;;;37.20;22.08;;;;;;;12.99;58.51;95253.72;4195600;28;20107;-57
2022/11/02 02:01:58;;;;;;;32.33;19.38;;;;;;;13.00;59.78;95257.19;4177818;28;20506;-55
2022/11/02 02:04:00;;;;;;;33.28;19.80;;;;;;;13.00;59.42;95251.91;4178821;28;20075;-57
2022/11/02 02:06:05;;;;;;;35.55;18.33;;;;;;;12.98;59.11;95254.69;4172229;28;20413;-57
2022/11/02 02:08:08;;;;;;;33.05;20.33;;;;;;;12.96;58.73;95258.47;4178326;28;20493;-57
2022/11/02 02:10:10;;;;;;;31.57;17.87;;;;;;;12.96;58.95;95255.84;4178732;28;20162;-59
2022/11/02 02:12:12;;;;;;;29.08;18.35;;;;;;;12.97;59.08;95257.47;4167074;28;20345;-57
2022/11/02 02:14:16;;;;;;;29.75;16.13;;;;;;;12.98;58.92;95253.88;4174385;28;20080;-60
2022/11/02 02:16:36;;;;;;;25.25;16.05;;;;;;;12.99;58.93;95252.88;4166207;28;20128;-60
2022/11/02 02:18:59;;;;;;;26.42;13.30;;;;;;;12.99;58.50;95253.72;4177730;28;20052;-58
2022/11/02 02:21:20;;;;;;;20.33;11.48;;;;;;;12.98;58.65;95246.81;4170353;28;20477;-56
2022/11/02 02:23:44;;;;;;;23.38;13.43;;;;;;;12.96;58.61;95250.59;4169926;28;20052;-57
2022/11/02 02:26:19;;;;;;;24.80;14.82;;;;;;;12.91;59.25;95253.69;4174281;28;20131;-56
2022/11/02 02:28:26;;;;;;;25.08;13.63;;;;;;;12.88;59.35;95249.59;4169646;28;20067;-56
2022/11/02 02:30:31;;;;;;;26.38;16.80;;;;;;;12.92;58.94;95244.81;4178913;28;20136;-56
2022/11/02 02:32:36;;;;;;;21.70;14.25;;;;;;;12.95;58.87;95247.13;4165540;28;20061;-56
2022/11/02 02:34:48;;;;;;;26.73;12.15;;;;;;;12.91;58.55;95245.81;4163897;28;20053;-58
2022/11/02 02:37:18;;;;;;;18.60;11.20;;;;;;;12.87;58.32;95240.03;4172823;28;20059;-60
2022/11/02 02:40:05;;;;;;;19.50;12.07;;;;;;;12.84;58.95;95245.63;4178533;28;20048;-59
2022/11/02 02:42:20;;;;;;;22.25;12.02;;;;;;;12.76;58.88;95250.84;4166578;28;20106;-61
2022/11/02 02:44:22;;;;;;;22.52;11.38;;;;;;;12.73;59.26;95250.34;4169739;28;20124;-57
2022/11/02 02:46:24;;;;;;;20.55;9.85;;;;;;;12.75;58.79;95259.72;4173362;28;20203;-58
2022/11/02 02:48:26;;;;;;;21.83;11.85;;;;;;;12.75;58.91;95256.25;4178787;28;20052;-57
2022/11/02 02:50:52;;;;;;;23.48;11.10;;;;;;;12.51;59.88;95257.81;4178187;28;20128;-58
2022/11/02 02:52:55;;;;;;;21.40;12.07;;;;;;;12.32;60.37;95247.53;4175158;28;20048;-54
2022/11/02 02:54:58;;;;;;;26.75;13.30;;;;;;;12.31;60.90;95251.16;4164910;28;20478;-58
2022/11/02 02:57:08;;;;;;;23.13;13.32;;;;;;;12.41;60.36;95251.84;4176758;28;20080;-57
2022/11/02 02:59:42;;;;;;;24.27;12.63;;;;;;;12.47;60.24;95252.03;4179464;28;20045;-56
2022/11/02 03:01:44;;;;;;;27.73;13.20;;;;;;;12.54;59.90;95246.16;4176525;28;20057;-57
2022/11/02 03:03:47;;;;;;;20.25;10.65;;;;;;;12.54;60.21;95248.78;4174478;28;20060;-56
2022/11/02 03:06:03;;;;;;;19.75;12.18;;;;;;;12.52;60.58;95254.22;4178273;28;20550;-58
2022/11/02 03:08:11;;;;;;;23.67;13.57;;;;;;;12.52;60.36;95251.59;4170594;28;20613;-56
2022/11/02 03:10:34;;;;;;;24.67;13.45;;;;;;;12.43;60.57;95247.25;4174320;28;20498;-59
2022/11/02 03:12:57;;;;;;;25.42;11.73;;;;;;;12.29;60.57;95259.19;4161526;28;20068;-59
2022/11/02 03:14:59;;;;;;;19.90;10.20;;;;;;;11.94;61.46;95266.19;4172588;28;20065;-58
2022/11/02 03:17:09;;;;;;;18.27;10.85;;;;;;;11.56;62.34;95272.56;4171282;28;20136;-56
2022/11/02 03:19:20;;;;;;;21.15;11.15;;;;;;;11.40;63.45;95268.84;4169340;28;20045;-54
2022/11/02 03:21:33;;;;;;;23.02;12.75;;;;;;;11.56;63.45;95272.56;4176669;28;20144;-57
2022/11/02 03:23:38;;;;;;;25.98;14.32;;;;;;;11.73;62.74;95271.72;4164294;28;20085;-57
2022/11/02 03:26:11;;;;;;;27.60;13.48;;;;;;;11.94;61.83;95267.97;4162922;28;20144;-57
2022/11/02 03:28:28;;;;;;;28.90;13.27;;;;;;;12.05;61.43;95267.72;4171651;28;20251;-55
2022/11/02 03:30:33;;;;;;;27.27;13.23;;;;;;;12.13;61.12;95259.06;4171949;28;20073;-55
2022/11/02 03:32:41;;;;;;;21.45;12.50;;;;;;;12.18;60.97;95268.13;4161920;28;20073;-58
2022/11/02 03:34:47;;;;;;;23.65;12.25;;;;;;;12.22;60.73;95261.59;4161379;28;20088;-60
2022/11/02 03:37:14;;;;;;;20.10;12.05;;;;;;;12.26;60.55;95265.56;4167084;28;20075;-56
2022/11/02 03:39:19;;;;;;;25.73;12.40;;;;;;;12.31;60.28;95256.41;4166682;28;20046;-58
2022/11/02 03:41:22;;;;;;;20.92;12.00;;;;;;;12.35;60.34;95260.38;4161850;28;20124;-58
2022/11/02 03:43:24;;;;;;;23.42;12.35;;;;;;;12.35;60.29;95252.50;4168666;28;20136;-56
2022/11/02 03:45:29;;;;;;;26.08;12.23;;;;;;;12.35;60.55;95253.31;4168014;28;20057;-56
2022/11/02 03:47:33;;;;;;;26.08;12.63;;;;;;;12.34;60.44;95256.06;4171437;28;20646;-57
2022/11/02 03:49:35;;;;;;;25.33;13.52;;;;;;;12.17;60.75;95253.34;4177560;28;20140;-57
2022/11/02 03:51:37;;;;;;;30.75;13.82;;;;;;;12.02;61.29;95262.78;4176472;28;20045;-56
2022/11/02 03:54:16;;;;;;;24.25;11.90;;;;;;;11.98;61.60;95250.94;4177385;28;20060;-60
2022/11/02 03:56:24;;;;;;;24.40;12.45;;;;;;;11.92;61.70;95259.44;4174952;28;20048;-59
2022/11/02 03:58:26;;;;;;;26.42;12.95;;;;;;;11.90;62.02;95249.09;4176395;28;20133;-56
2022/11/02 04:00:34;;;;;;;29.15;13.40;;;;;;;11.85;62.06;95256.56;4165592;28;20794;-57
2022/11/02 04:02:36;;;;;;;35.45;14.77;;;;;;;11.80;62.35;95253.56;4176396;28;20049;-56
2022/11/02 04:04:51;;;;;;;29.13;15.27;;;;;;;11.85;62.55;95252.16;4193841;28;20040;-58
2022/11/02 04:06:53;;;;;;;29.80;15.15;;;;;;;11.93;61.99;95251.41;4176184;28;20083;-58
2022/11/02 04:08:55;;;;;;;37.15;21.17;;;;;;;11.95;61.88;95249.44;4177129;28;20084;-58
2022/11/02 04:15:38;;;;;;;44.70;28.75;;;;;;;12.06;61.57;95258.88;4164527;28;20145;-59
2022/11/02 04:19:59;;;;;;;36.10;23.05;;;;;;;12.06;61.55;95262.31;4162761;28;20136;-60
2022/11/02 04:26:41;;;;;;;28.33;13.45;;;;;;;11.57;62.15;95258.47;4176890;28;20049;-58
2022/11/02 04:28:43;;;;;;;26.90;13.63;;;;;;;11.58;62.70;95263.56;4166348;28;20053;-56
2022/11/02 04:30:45;;;;;;;33.67;14.27;;;;;;;11.66;62.54;95262.81;4177308;28;20132;-58
2022/11/02 04:35:09;;;;;;;37.45;13.75;;;;;;;11.79;61.99;95263.25;4167699;28;20124;-57
2022/11/02 04:39:36;;;;;;;24.67;12.48;;;;;;;11.88;61.63;95262.34;4175069;28;20052;-58
2022/11/02 04:41:40;;;;;;;30.83;13.10;;;;;;;11.95;61.54;95264.38;4161768;28;20084;-57
2022/11/02 04:43:43;;;;;;;26.45;13.65;;;;;;;12.00;61.38;95256.84;4163652;28;20049;-58
2022/11/02 04:45:44;;;;;;;21.55;12.88;;;;;;;12.02;61.26;95254.91;4176404;28;20143;-59
2022/11/02 04:47:46;;;;;;;30.80;13.80;;;;;;;12.03;61.29;95256.56;4178314;28;20128;-58
2022/11/02 04:49:48;;;;;;;26.33;13.55;;;;;;;12.02;61.30;95263.63;4177390;28;20049;-57
2022/11/02 04:51:49;;;;;;;33.10;14.60;;;;;;;12.04;61.45;95250.31;4176984;28;20055;-58
2022/11/02 04:53:52;;;;;;;27.23;14.02;;;;;;;12.00;61.38;95254.22;4177734;28;20081;-57
2022/11/02 04:55:54;;;;;;;26.95;13.80;;;;;;;11.95;61.61;95257.31;4172466;28;20088;-53
2022/11/02 04:57:56;;;;;;;34.97;14.98;;;;;;;11.91;61.56;95255.16;4171033;28;20486;-56
2022/11/02 04:59:57;;;;;;;28.27;13.75;;;;;;;11.88;62.03;95256.28;4173826;28;20133;-57
2022/11/02 05:01:59;;;;;;;29.67;14.90;;;;;;;11.76;62.34;95253.03;4173839;28;20052;-58
2022/11/02 05:04:01;;;;;;;31.83;15.25;;;;;;;11.75;62.42;95259.28;4173719;28;20049;-58
2022/11/02 05:06:03;;;;;;;38.65;15.25;;;;;;;11.68;62.49;95258.25;4176461;28;20080;-60
2022/11/02 05:08:04;;;;;;;36.20;15.07;;;;;;;11.61;62.70;95271.13;4178250;28;20650;-61
2022/11/02 05:10:08;;;;;;;35.83;13.85;;;;;;;11.57;62.80;95266.34;4178234;28;20550;-58
2022/11/02 05:12:09;;;;;;;29.73;14.68;;;;;;;11.46;62.80;95267.38;4177396;28;20087;-59
2022/11/02 05:14:11;;;;;;;27.88;14.18;;;;;;;11.44;62.95;95267.56;4179514;28;20079;-61
2022/11/02 05:16:14;;;;;;;29.38;14.60;;;;;;;11.53;62.86;95268.47;4180179;28;20135;-60
2022/11/02 05:18:16;;;;;;;30.02;14.27;;;;;;;11.63;62.67;95270.97;4181171;28;20398;-60
2022/11/02 05:20:19;;;;;;;31.45;14.40;;;;;;;11.71;62.59;95273.69;4180034;28;20560;-59
2022/11/02 05:22:21;;;;;;;30.05;14.48;;;;;;;11.76;62.72;95275.84;4180698;28;20147;-59
2022/11/02 05:24:23;;;;;;;31.65;14.48;;;;;;;11.83;62.28;95274.25;4180217;28;20135;-58
2022/11/02 05:26:24;;;;;;;24.52;14.18;;;;;;;11.91;62.20;95276.16;4167521;28;20171;-60
2022/11/02 05:28:27;;;;;;;24.60;14.93;;;;;;;11.98;61.97;95285.06;4169633;28;20046;-61
2022/11/02 05:30:29;;;;;;;34.60;16.52;;;;;;;11.97;62.11;95288.69;4169372;28;20049;-60
2022/11/02 05:32:31;;;;;;;39.28;16.30;;;;;;;11.91;62.07;95292.72;4164861;28;20502;-58
2022/11/02 05:34:32;;;;;;;36.25;16.17;;;;;;;11.85;62.26;95291.53;4164475;28;20140;-60
2022/11/02 05:36:34;;;;;;;30.73;16.58;;;;;;;11.88;62.13;95293.03;4163893;28;20128;-60
2022/11/02 05:38:36;;;;;;;31.48;15.90;;;;;;;11.96;62.48;95295.75;4172034;28;20045;-62
2022/11/02 05:40:39;;;;;;;33.88;15.45;;;;;;;12.05;61.84;95289.56;4176270;28;20056;-59
2022/11/02 05:42:41;;;;;;;27.92;14.07;;;;;;;12.12;61.21;95289.75;4177746;28;20049;-61
2022/11/02 05:44:42;;;;;;;28.33;16.20;;;;;;;12.18;61.18;95289.16;4168455;28;20054;-60
2022/11/02 05:46:44;;;;;;;30.35;14.65;;;;;;;12.24;61.23;95299.03;4177981;28;20052;-60
2022/11/02 05:48:46;;;;;;;30.33;15.27;;;;;;;12.30;61.07;95297.59;4180777;28;20073;-59
2022/11/02 05:50:48;;;;;;;37.25;16.70;;;;;;;12.39;60.75;95301.09;4173225;28;20141;-60
2022/11/02 05:52:49;;;;;;;30.95;17.27;;;;;;;12.42;60.72;95311.31;4180766;28;20567;-60
2022/11/02 05:54:51;;;;;;;35.90;16.13;;;;;;;12.42;60.87;95311.31;4174381;28;20566;-58
2022/11/02 05:56:53;;;;;;;42.80;16.80;;;;;;;12.37;60.76;95305.66;4179004;28;20139;-57
2022/11/02 05:58:54;;;;;;;41.60;16.42;;;;;;;12.41;60.96;95313.13;4168916;28;20128;-59
2022/11/02 06:01:00;;;;;;;36.10;16.33;;;;;;;12.50;60.70;95312.16;4171360;28;20076;-58
2022/11/02 06:03:02;;;;;;;38.20;16.45;;;;;;;12.57;60.59;95315.00;4175233;28;20103;-58
2022/11/02 06:05:05;;;;;;;35.63;16.27;;;;;;;12.68;60.38;95308.66;4180087;28;20053;-59
2022/11/02 06:07:06;;;;;;;35.25;16.52;;;;;;;12.71;60.29;95321.47;4167234;28;20577;-59
2022/11/02 06:09:08;;;;;;;33.75;15.68;;;;;;;12.78;60.28;95313.81;4176947;28;20144;-60
2022/11/02 06:11:11;;;;;;;41.53;16.52;;;;;;;12.85;60.06;95317.44;4170025;28;20059;-60
2022/11/02 06:13:13;;;;;;;49.15;17.83;;;;;;;12.91;59.43;95320.25;4180271;28;20512;-60
2022/11/02 06:15:15;;;;;;;35.28;16.98;;;;;;;12.98;59.45;95317.81;4179095;28;20079;-61
2022/11/02 06:17:16;;;;;;;31.88;16.63;;;;;;;13.06;58.97;95320.47;4165291;28;20585;-64
2022/11/02 06:19:18;;;;;;;37.38;16.17;;;;;;;13.11;58.82;95318.19;4170907;28;20135;-65
2022/11/02 06:21:20;;;;;;;41.00;17.02;;;;;;;13.20;59.02;95318.22;4168549;28;20617;-64
2022/11/02 06:23:21;;;;;;;32.85;15.30;;;;;;;13.21;58.78;95319.88;4163717;28;20060;-65
2022/11/02 06:25:23;;;;;;;41.72;17.30;;;;;;;13.26;58.93;95325.47;4162616;28;20133;-65
2022/11/02 06:27:25;;;;;;;34.95;16.33;;;;;;;13.31;58.59;95320.56;4163890;28;20049;-70
2022/11/02 06:29:26;;;;;;;40.03;16.90;;;;;;;13.38;58.41;95324.22;4163501;28;20067;-66
2022/11/02 06:31:28;;;;;;;29.95;15.88;;;;;;;13.38;57.61;95326.88;4166027;28;20136;-64
2022/11/02 06:33:29;;;;;;;40.83;15.07;;;;;;;13.44;57.93;95323.59;4178660;28;20064;-66
2022/11/02 06:35:31;;;;;;;41.58;15.25;;;;;;;13.54;57.82;95319.97;4179022;28;20041;-63
2022/11/02 06:37:33;;;;;;;31.20;16.23;;;;;;;13.59;57.56;95326.38;4168912;28;20136;-64
2022/11/02 06:39:35;;;;;;;27.60;15.18;;;;;;;13.66;57.58;95329.22;4166638;28;20077;-64
2022/11/02 06:41:41;;;;;;;32.90;15.80;;;;;;;13.72;57.09;95328.53;4172152;28;20059;-65
2022/11/02 06:43:43;;;;;;;40.08;17.83;;;;;;;13.71;56.96;95327.72;4173811;28;20076;-65
2022/11/02 06:45:45;;;;;;;34.47;16.88;;;;;;;13.73;56.98;95327.56;4169787;28;20646;-67
2022/11/02 06:47:47;;;;;;;36.85;16.90;;;;;;;13.77;57.42;95326.25;4170963;28;20053;-68
2022/11/02 06:49:50;;;;;;;31.33;15.98;;;;;;;13.86;56.95;95329.72;4171128;28;20089;-66
2022/11/02 06:51:52;;;;;;;28.77;15.53;;;;;;;13.95;57.29;95334.00;4168553;28;20510;-63
2022/11/02 06:53:54;;;;;;;27.33;15.68;;;;;;;14.06;56.95;95323.13;4176301;28;20092;-65
2022/11/02 06:55:57;;;;;;;34.28;15.63;;;;;;;14.16;56.15;95322.16;4178251;28;20736;-65
2022/11/02 06:57:58;;;;;;;30.23;15.33;;;;;;;14.26;55.74;95323.63;4179425;28;20049;-66
2022/11/02 07:00:03;;;;;;;32.40;16.95;;;;;;;14.32;55.54;95322.94;4167931;28;20282;-64
2022/11/02 07:02:05;;;;;;;28.55;15.95;;;;;;;14.42;55.84;95321.97;4177247;28;20474;-64
2022/11/02 07:04:07;;;;;;;34.97;16.45;;;;;;;14.47;55.82;95320.44;4174857;28;20049;-65
2022/11/02 07:06:08;;;;;;;42.20;16.85;;;;;;;14.59;55.50;95310.41;4162820;28;20115;-66
2022/11/02 07:08:15;;;;;;;42.33;17.58;;;;;;;14.66;55.05;95308.75;4163830;28;20057;-61
2022/11/02 07:10:16;;;;;;;41.40;17.42;;;;;;;14.65;54.71;95315.03;4163533;28;20068;-60
2022/11/02 07:12:18;;;;;;;37.00;16.70;;;;;;;14.55;54.70;95322.28;4165640;28;20084;-61
2022/11/02 07:14:23;;;;;;;26.65;15.88;;;;;;;14.51;54.92;95321.75;4179525;28;20131;-60
2022/11/02 07:16:25;;;;;;;39.97;17.30;;;;;;;14.49;55.09;95317.66;4178180;28;20088;-58
2022/11/02 07:18:27;;;;;;;33.47;18.42;;;;;;;14.59;54.91;95322.78;4179128;28;20060;-60
2022/11/02 07:20:29;;;;;;;29.35;16.90;;;;;;;14.72;54.59;95320.44;4164854;28;20056;-59
2022/11/02 07:22:30;;;;;;;32.00;17.08;;;;;;;14.89;54.47;95313.31;4179102;28;20051;-60
2022/11/02 07:24:32;;;;;;;35.47;17.27;;;;;;;15.01;53.74;95322.47;4179148;28;20124;-59
2022/11/02 07:26:34;;;;;;;33.42;15.93;;;;;;;15.03;53.70;95322.31;4179039;28;20053;-60
2022/11/02 07:28:37;;;;;;;28.42;15.07;;;;;;;15.04;53.56;95319.50;4179032;28;20051;-62
2022/11/02 07:30:39;;;;;;;122.72;23.08;;;;;;;15.13;53.57;95318.47;4173386;28;20053;-59
2022/11/02 07:32:41;;;;;;;43.53;18.00;;;;;;;15.24;53.09;95309.34;4174745;28;20369;-58
2022/11/02 07:34:43;;;;;;;33.28;16.63;;;;;;;15.25;52.81;95308.38;4178472;28;20474;-59
2022/11/02 07:36:45;;;;;;;35.47;16.83;;;;;;;15.36;53.08;95317.72;4177347;28;20048;-60
2022/11/02 07:38:46;;;;;;;33.25;17.17;;;;;;;15.42;52.40;95308.25;4177894;28;20055;-62
2022/11/02 07:40:49;;;;;;;37.03;18.60;;;;;;;15.43;52.79;95304.63;4168185;28;20844;-59
2022/11/02 07:42:52;;;;;;;33.35;16.38;;;;;;;15.54;52.38;95305.03;4169506;28;20483;-64
2022/11/02 07:44:54;;;;;;;32.13;16.38;;;;;;;15.68;52.16;95308.78;4172033;28;20132;-61
2022/11/02 07:46:56;;;;;;;34.35;17.45;;;;;;;15.73;51.78;95303.81;4170793;28;20133;-60
2022/11/02 07:48:58;;;;;;;30.75;17.58;;;;;;;15.77;51.49;95306.91;4173036;28;20099;-59
2022/11/02 07:51:00;;;;;;;37.83;16.20;;;;;;;15.81;51.23;95302.94;4175131;28;20091;-60
2022/11/02 07:53:01;;;;;;;35.78;17.40;;;;;;;15.87;51.36;95302.19;4175959;28;20144;-61
2022/11/02 07:55:04;;;;;;;35.08;18.25;;;;;;;15.94;51.32;95304.97;4173181;28;20045;-62
2022/11/02 07:57:05;;;;;;;39.15;18.33;;;;;;;15.94;51.01;95299.69;4177560;28;20053;-61
2022/11/02 07:59:09;;;;;;;40.00;18.05;;;;;;;15.94;51.37;95303.16;4178956;28;20238;-60
2022/11/02 08:01:11;;;;;;;35.25;18.33;;;;;;;15.86;51.25;95303.22;4167695;28;20152;-58
2022/11/02 08:03:13;;;;;;;38.55;19.90;;;;;;;15.84;51.12;95294.63;4175917;28;20076;-60
2022/11/02 08:05:15;;;;;;;40.50;19.05;;;;;;;15.72;51.18;95288.13;4171630;28;20044;-61
2022/11/02 08:07:17;;;;;;;40.90;19.38;;;;;;;15.80;51.05;95290.72;4171521;28;20052;-59
2022/11/02 08:09:18;;;;;;;32.30;18.30;;;;;;;15.94;50.83;95295.22;4169071;28;20166;-59
2022/11/02 08:11:20;;;;;;;43.88;18.98;;;;;;;16.11;50.60;95288.00;4172163;28;20129;-59
2022/11/02 08:13:24;;;;;;;36.22;19.25;;;;;;;16.32;50.31;95283.81;4178541;28;20091;-61
2022/11/02 08:15:26;;;;;;;42.03;19.63;;;;;;;16.54;49.78;95282.09;4175439;28;20049;-62
2022/11/02 08:17:27;;;;;;;37.83;18.70;;;;;;;16.69;49.54;95275.03;4162972;28;20498;-60
2022/11/02 08:19:29;;;;;;;34.97;18.80;;;;;;;16.88;48.95;95275.47;4177573;28;20049;-59
2022/11/02 08:21:31;;;;;;;35.05;19.63;;;;;;;16.96;48.63;95275.38;4171804;28;20510;-61
2022/11/02 08:23:32;;;;;;;35.05;18.27;;;;;;;16.99;48.22;95275.84;4173078;28;20064;-62
2022/11/02 08:25:36;;;;;;;34.20;17.85;;;;;;;16.97;48.63;95269.91;4173469;28;20041;-63
2022/11/02 08:27:38;;;;;;;34.75;17.88;;;;;;;17.05;48.03;95266.31;4165224;28;20057;-59
2022/11/02 08:29:39;;;;;;;31.70;19.00;;;;;;;17.04;47.94;95270.00;4171742;28;20065;-59
2022/11/02 08:31:41;;;;;;;45.13;18.15;;;;;;;17.19;47.95;95264.69;4165067;28;20238;-60
2022/11/02 08:33:43;;;;;;;37.90;18.00;;;;;;;17.25;47.40;95263.09;4162798;28;20085;-60
2022/11/02 08:35:46;;;;;;;32.72;17.25;;;;;;;17.16;47.74;95255.28;4172160;28;20081;-62
2022/11/02 08:37:54;;;;;;;33.38;17.88;;;;;;;17.18;47.54;95261.19;4172992;28;20553;-59
2022/11/02 08:39:56;;;;;;;39.88;18.90;;;;;;;17.07;47.88;95260.84;4174125;28;20046;-62
2022/11/02 08:41:58;;;;;;;35.35;18.38;;;;;;;17.12;47.80;95261.97;4163891;28;20080;-58
2022/11/02 08:43:59;;;;;;;34.60;18.75;;;;;;;17.34;47.34;95260.16;4173083;28;20042;-62
2022/11/02 08:46:02;;;;;;;29.13;17.70;;;;;;;17.55;46.93;95259.38;4161111;28;20135;-61
2022/11/02 08:48:19;;;;;;;34.58;16.20;;;;;;;17.71;46.52;95257.47;4174917;28;20274;-58
2022/11/02 08:50:21;;;;;;;31.95;16.92;;;;;;;17.77;45.98;95252.22;4169026;28;20128;-61
2022/11/02 08:52:23;;;;;;;34.93;17.03;;;;;;;17.85;45.87;95256.59;4181365;28;20099;-62
2022/11/02 08:54:25;;;;;;;32.95;18.70;;;;;;;18.00;45.69;95254.72;4181475;28;20348;-63
2022/11/02 08:56:27;;;;;;;39.70;21.92;;;;;;;18.15;45.73;95259.91;4180933;28;20347;-63
2022/11/02 08:58:29;;;;;;;128.35;72.10;;;;;;;18.33;45.21;95255.97;4181314;28;20048;-60
2022/11/02 09:00:32;;;;;;;46.88;21.65;;;;;;;18.39;44.42;95250.72;4180525;28;20110;-59
2022/11/02 09:02:33;;;;;;;39.97;21.08;;;;;;;18.51;44.64;95244.88;4175733;28;20127;-63
2022/11/02 09:04:35;;;;;;;32.80;18.73;;;;;;;18.59;44.75;95250.03;4181636;28;20085;-61
2022/11/02 09:06:37;;;;;;;38.92;18.83;;;;;;;18.68;44.56;95250.69;4180290;28;20139;-62
2022/11/02 09:08:38;;;;;;;40.22;19.92;;;;;;;18.80;44.56;95246.50;4180905;28;20124;-63
2022/11/02 09:10:40;;;;;;;40.53;18.80;;;;;;;18.93;44.16;95243.06;4178796;28;20133;-62
2022/11/02 09:12:42;;;;;;;31.45;19.20;;;;;;;19.00;43.69;95247.41;4178351;28;20124;-62
2022/11/02 09:14:43;;;;;;;41.10;20.20;;;;;;;18.99;43.74;95247.59;4180710;28;20485;-60
2022/11/02 09:16:45;;;;;;;30.30;18.20;;;;;;;19.12;43.71;95239.69;4171400;28;20073;-60
2022/11/02 09:18:46;;;;;;;35.58;19.80;;;;;;;19.24;43.86;95235.41;4177853;28;20149;-62
2022/11/02 09:20:49;;;;;;;34.00;19.55;;;;;;;19.40;43.21;95228.09;4180210;28;20049;-62
2022/11/02 09:22:52;;;;;;;45.40;21.42;;;;;;;19.48;42.86;95232.44;4178311;28;20067;-63
2022/11/02 09:24:53;;;;;;;48.63;20.23;;;;;;;19.52;42.54;95229.16;4180551;28;20049;-61
2022/11/02 09:26:55;;;;;;;36.38;18.30;;;;;;;19.57;42.12;95223.25;4178357;28;20127;-61
2022/11/02 09:28:56;;;;;;;45.05;22.13;;;;;;;19.63;42.61;95215.28;4180916;28;20374;-61
2022/11/02 09:30:58;;;;;;;44.88;19.95;;;;;;;19.79;42.46;95219.44;4177311;28;20082;-62
2022/11/02 09:33:02;;;;;;;37.45;20.67;;;;;;;19.96;42.33;95214.53;4174133;28;20080;-60
2022/11/02 09:35:07;;;;;;;31.88;18.88;;;;;;;20.13;41.85;95216.75;4175639;28;20475;-61
2022/11/02 09:37:09;;;;;;;49.90;18.15;;;;;;;19.89;41.31;95208.38;4177681;28;20049;-61
2022/11/02 09:39:10;;;;;;;37.95;18.50;;;;;;;19.84;41.78;95208.19;4169135;28;20136;-64
2022/11/02 09:41:33;;;;;;;40.58;18.40;;;;;;;19.99;42.04;95208.78;4170485;28;20071;-63
2022/11/02 09:43:58;;;;;;;36.75;17.38;;;;;;;20.12;41.26;95207.16;4179748;28;20045;-61
2022/11/02 09:46:05;;;;;;;34.90;18.38;;;;;;;20.20;40.79;95198.97;4169322;28;20123;-64
2022/11/02 09:48:15;;;;;;;32.53;17.65;;;;;;;20.15;40.85;95193.44;4179518;28;20494;-60